createdAt,value
2023-03-07T00:02:23.464Z,81.60
2023-03-07T00:07:12.896Z,82.00
2023-03-07T00:09:37.928Z,78.95
2023-03-07T00:12:02.540Z,77.93
2023-03-07T00:14:26.899Z,84.60
2023-03-07T00:16:52.178Z,79.28
2023-03-07T00:19:18.693Z,86.95
2023-03-07T00:21:44.677Z,81.90
2023-03-07T00:24:11.246Z,88.13
2023-03-07T00:26:39.544Z,87.97
2023-03-07T00:29:03.916Z,77.97
2023-03-07T00:31:28.293Z,79.53
2023-03-07T00:33:52.870Z,89.18
2023-03-07T00:36:19.775Z,80.60
2023-03-07T00:38:45.882Z,85.45
2023-03-07T00:41:12.988Z,93.30
2023-03-07T00:43:38.048Z,93.13
2023-03-07T00:46:03.907Z,92.45
2023-03-07T00:48:28.892Z,96.43
2023-03-07T00:50:54.335Z,94.28
2023-03-07T00:53:19.480Z,91.70
2023-03-07T00:55:58.744Z,102.95
2023-03-07T00:58:23.628Z,96.82
2023-03-07T01:00:48.419Z,94.65
2023-03-07T01:03:12.962Z,102.45
2023-03-07T01:05:40.321Z,94.47
2023-03-07T01:08:04.755Z,94.90
2023-03-07T01:10:29.529Z,95.53
2023-03-07T01:12:55.527Z,95.97
2023-03-07T01:15:20.406Z,87.68
2023-03-07T01:17:44.734Z,89.03
2023-03-07T01:20:10.836Z,87.15
2023-03-07T01:22:35.457Z,86.75
2023-03-07T01:25:00.124Z,93.40
2023-03-07T01:27:26.046Z,95.47
2023-03-07T01:29:52.194Z,95.28
2023-03-07T01:32:16.616Z,94.90
2023-03-07T01:34:41.874Z,94.10
2023-03-07T01:37:07.082Z,94.07
2023-03-07T01:39:31.844Z,92.13
2023-03-07T01:42:00.831Z,90.38
2023-03-07T01:44:27.591Z,92.72
2023-03-07T01:46:55.332Z,90.18
2023-03-07T01:49:29.934Z,95.63
2023-03-07T01:52:02.697Z,97.72
2023-03-07T01:54:27.923Z,97.93
2023-03-07T01:56:53.456Z,90.32
2023-03-07T01:59:22.808Z,91.95
2023-03-07T02:01:47.478Z,95.15
2023-03-07T02:04:19.575Z,101.00
2023-03-07T02:06:44.121Z,87.00
2023-03-07T02:09:13.399Z,87.97
2023-03-07T02:11:37.879Z,102.47
2023-03-07T02:14:22.243Z,93.82
2023-03-07T02:16:49.696Z,95.43
2023-03-07T02:19:30.200Z,96.70
2023-03-07T02:22:05.917Z,88.45
2023-03-07T02:24:35.832Z,87.50
2023-03-07T02:27:01.665Z,92.80
2023-03-07T02:29:26.262Z,93.90
2023-03-07T02:31:50.729Z,89.32
2023-03-07T02:34:23.739Z,98.40
2023-03-07T02:37:00.013Z,95.78
2023-03-07T02:39:30.089Z,94.38
2023-03-07T02:41:57.681Z,93.57
2023-03-07T02:44:31.966Z,86.75
2023-03-07T02:46:56.346Z,88.93
2023-03-07T02:49:25.116Z,88.65
2023-03-07T02:51:49.752Z,92.18
2023-03-07T02:54:14.206Z,91.43
2023-03-07T02:56:38.853Z,90.88
2023-03-07T02:59:03.708Z,95.13
2023-03-07T03:01:30.077Z,93.78
2023-03-07T03:03:56.100Z,84.28
2023-03-07T03:06:20.466Z,89.30
2023-03-07T03:08:44.796Z,95.15
2023-03-07T03:11:09.485Z,92.80
2023-03-07T03:13:34.090Z,101.20
2023-03-07T03:15:59.946Z,83.95
2023-03-07T03:18:28.568Z,84.05
2023-03-07T03:20:52.976Z,89.82
2023-03-07T03:23:17.524Z,95.90
2023-03-07T03:25:42.225Z,89.22
2023-03-07T03:28:07.215Z,96.90
2023-03-07T03:30:32.522Z,93.80
2023-03-07T03:32:58.563Z,94.18
2023-03-07T03:35:26.518Z,94.68
2023-03-07T03:37:53.019Z,93.20
2023-03-07T03:40:17.758Z,87.35
2023-03-07T03:42:45.792Z,96.03
2023-03-07T03:45:14.907Z,87.10
2023-03-07T03:47:39.451Z,83.57
2023-03-07T03:50:04.080Z,91.97
2023-03-07T03:52:30.214Z,87.90
2023-03-07T03:54:54.662Z,87.40
2023-03-07T03:57:20.688Z,91.90
2023-03-07T03:59:45.194Z,85.97
2023-03-07T04:02:11.558Z,86.88
2023-03-07T04:04:36.738Z,89.72
2023-03-07T04:07:01.783Z,129.32
2023-03-07T04:09:28.188Z,120.63
2023-03-07T04:11:52.655Z,92.88
2023-03-07T04:14:17.042Z,85.63
2023-03-07T04:16:43.056Z,92.30
2023-03-07T04:19:08.670Z,89.82
2023-03-07T04:21:33.082Z,84.57
2023-03-07T04:23:58.566Z,88.32
2023-03-07T04:26:28.273Z,87.60
2023-03-07T04:28:52.855Z,93.50
2023-03-07T04:31:27.827Z,92.10
2023-03-07T04:33:55.712Z,91.90
2023-03-07T04:36:20.818Z,89.72
2023-03-07T04:38:45.605Z,95.45
2023-03-07T04:41:12.032Z,90.55
2023-03-07T04:43:37.926Z,91.82
2023-03-07T04:46:03.813Z,94.32
2023-03-07T04:48:28.258Z,95.78
2023-03-07T04:50:53.391Z,90.10
2023-03-07T04:53:20.772Z,89.25
2023-03-07T04:55:45.616Z,88.90
2023-03-07T04:58:13.100Z,89.43
2023-03-07T05:00:40.359Z,92.32
2023-03-07T05:03:05.009Z,103.63
2023-03-07T05:05:31.183Z,88.00
2023-03-07T05:07:55.537Z,94.20
2023-03-07T05:10:20.521Z,91.68
2023-03-07T05:12:45.361Z,84.03
2023-03-07T05:15:11.188Z,90.03
2023-03-07T05:17:38.449Z,85.90
2023-03-07T05:20:04.016Z,101.53
2023-03-07T05:22:28.672Z,85.32
2023-03-07T05:24:53.549Z,90.85
2023-03-07T05:27:18.377Z,85.70
2023-03-07T05:29:43.899Z,87.82
2023-03-07T05:32:08.639Z,99.53
2023-03-07T05:34:34.615Z,99.22
2023-03-07T05:36:59.255Z,94.97
2023-03-07T05:39:27.529Z,98.70
2023-03-07T05:41:52.020Z,106.32
2023-03-07T05:44:16.657Z,87.15
2023-03-07T05:46:41.914Z,89.45
2023-03-07T05:49:06.359Z,99.00
2023-03-07T05:51:32.173Z,97.78
2023-03-07T05:53:58.845Z,98.25
2023-03-07T05:56:24.194Z,102.95
2023-03-07T05:58:51.081Z,94.43
2023-03-07T06:01:15.631Z,93.65
2023-03-07T06:03:40.177Z,91.95
2023-03-07T06:06:05.567Z,98.78
2023-03-07T06:08:31.754Z,103.75
2023-03-07T06:10:56.545Z,90.65
2023-03-07T06:13:24.161Z,91.63
2023-03-07T06:15:51.458Z,93.50
2023-03-07T06:18:17.108Z,92.32
2023-03-07T06:20:42.673Z,92.60
2023-03-07T06:23:07.403Z,96.00
2023-03-07T06:25:34.002Z,89.60
2023-03-07T06:28:01.171Z,102.63
2023-03-07T06:30:29.541Z,99.47
2023-03-07T06:32:54.524Z,89.30
2023-03-07T06:35:20.220Z,91.25
2023-03-07T06:37:48.653Z,99.68
2023-03-07T06:40:14.383Z,92.53
2023-03-07T06:42:42.361Z,86.55
2023-03-07T06:45:10.491Z,89.63
2023-03-07T06:47:35.586Z,95.93
2023-03-07T06:50:03.577Z,94.90
2023-03-07T06:52:30.196Z,84.93
2023-03-07T06:54:58.068Z,79.93
2023-03-07T06:57:23.665Z,83.95
2023-03-07T06:59:50.315Z,79.25
2023-03-07T07:02:16.688Z,75.72
2023-03-07T07:04:41.512Z,75.70
2023-03-07T07:07:07.590Z,75.80
2023-03-07T07:09:32.535Z,77.05
2023-03-07T07:11:58.062Z,74.90
2023-03-07T07:14:23.395Z,75.45
2023-03-07T07:16:49.903Z,66.05
2023-03-07T07:19:14.311Z,71.60
2023-03-07T07:21:39.349Z,72.18
2023-03-07T07:24:04.881Z,91.45
2023-03-07T07:26:30.243Z,88.78
2023-03-07T07:28:56.823Z,76.88
2023-03-07T07:31:21.247Z,73.80
2023-03-07T07:33:47.640Z,55.92
2023-03-07T07:36:13.765Z,59.47
2023-03-07T07:38:38.537Z,59.83
2023-03-07T07:41:03.365Z,65.90
2023-03-07T07:43:27.684Z,64.05
2023-03-07T07:46:01.049Z,61.35
2023-03-07T07:48:26.194Z,60.35
2023-03-07T07:50:52.589Z,64.90
2023-03-07T07:53:18.181Z,61.90
2023-03-07T07:55:44.136Z,73.35
2023-03-07T07:58:08.663Z,64.65
2023-03-07T08:00:33.455Z,60.50
2023-03-07T08:02:58.070Z,63.20
2023-03-07T08:05:23.094Z,67.53
2023-03-07T08:07:50.395Z,56.00
2023-03-07T08:10:16.578Z,61.30
2023-03-07T08:12:41.029Z,49.40
2023-03-07T08:15:05.882Z,51.85
2023-03-07T08:17:30.671Z,48.40
2023-03-07T08:19:54.925Z,46.38
2023-03-07T08:22:19.759Z,50.28
2023-03-07T08:24:47.841Z,59.58
2023-03-07T08:27:12.507Z,62.10
2023-03-07T08:29:36.850Z,62.55
2023-03-07T08:32:01.316Z,54.58
2023-03-07T08:34:25.648Z,57.20
2023-03-07T08:36:50.005Z,59.08
2023-03-07T08:39:15.725Z,57.63
2023-03-07T08:41:42.000Z,58.35
2023-03-07T08:44:06.589Z,57.97
2023-03-07T08:46:31.088Z,62.53
2023-03-07T08:48:55.668Z,50.25
2023-03-07T08:51:20.061Z,45.97
2023-03-07T08:53:46.211Z,36.13
2023-03-07T08:56:12.006Z,40.28
2023-03-07T08:58:38.721Z,38.53
2023-03-07T09:01:03.612Z,39.30
2023-03-07T09:03:28.098Z,36.22
2023-03-07T09:05:52.566Z,41.10
2023-03-07T09:08:16.946Z,36.20
2023-03-07T09:10:42.669Z,40.15
2023-03-07T09:13:07.076Z,39.28
2023-03-07T09:15:32.828Z,44.85
2023-03-07T09:17:57.684Z,39.20
2023-03-07T09:20:22.255Z,39.15
2023-03-07T09:22:46.943Z,40.80
2023-03-07T09:25:12.528Z,46.78
2023-03-07T09:27:36.928Z,48.53
2023-03-07T09:30:01.335Z,45.00
2023-03-07T09:32:27.456Z,43.92
2023-03-07T09:34:53.537Z,44.00
2023-03-07T09:37:18.893Z,40.20
2023-03-07T09:39:44.279Z,45.53
2023-03-07T09:42:18.184Z,39.88
2023-03-07T09:45:21.110Z,48.03
2023-03-07T09:48:25.699Z,43.00
2023-03-07T09:50:55.076Z,39.78
2023-03-07T09:53:25.452Z,34.17
2023-03-07T09:55:51.708Z,30.60
2023-03-07T09:58:20.123Z,40.30
2023-03-07T10:00:46.107Z,37.35
2023-03-07T10:03:21.656Z,36.92
2023-03-07T10:05:50.437Z,33.83
2023-03-07T10:08:18.154Z,33.42
2023-03-07T10:10:45.238Z,34.42
2023-03-07T10:13:28.105Z,33.30
2023-03-07T10:15:57.658Z,30.63
2023-03-07T10:18:41.420Z,38.15
2023-03-07T10:21:16.199Z,30.63
2023-03-07T10:24:24.242Z,28.30
2023-03-07T10:27:07.005Z,27.83
2023-03-07T10:29:44.709Z,25.15
2023-03-07T10:32:23.359Z,28.83
2023-03-07T10:35:01.468Z,21.08
2023-03-07T10:37:38.422Z,24.80
2023-03-07T10:40:04.952Z,40.55
2023-03-07T10:47:09.217Z,28.33
2023-03-07T10:49:53.505Z,18.17
2023-03-07T10:52:31.259Z,24.00
2023-03-07T10:55:36.487Z,23.40
2023-03-07T10:58:15.774Z,25.20
2023-03-07T11:00:44.544Z,22.67
2023-03-07T11:03:26.803Z,25.58
2023-03-07T11:05:54.162Z,23.25
2023-03-07T11:08:33.971Z,21.25
2023-03-07T11:10:59.130Z,30.38
2023-03-07T11:13:24.844Z,20.25
2023-03-07T11:15:49.838Z,27.23
2023-03-07T11:18:28.015Z,16.55
2023-03-07T11:20:53.519Z,12.45
2023-03-07T11:23:23.470Z,13.52
2023-03-07T11:25:49.385Z,24.10
2023-03-07T11:28:32.347Z,13.82
2023-03-07T11:31:08.112Z,15.43
2023-03-07T11:33:59.646Z,16.60
2023-03-07T11:36:33.758Z,16.02
2023-03-07T11:39:24.253Z,19.42
2023-03-07T11:42:04.787Z,19.23
2023-03-07T11:44:39.088Z,26.92
2023-03-07T11:47:35.886Z,15.18
2023-03-07T11:50:15.431Z,16.10
2023-03-07T11:53:03.913Z,16.27
2023-03-07T11:55:35.876Z,21.98
2023-03-07T11:58:18.818Z,12.63
2023-03-07T12:00:54.591Z,15.43
2023-03-07T12:04:03.601Z,19.98
2023-03-07T12:06:36.492Z,12.30
2023-03-07T12:09:39.155Z,11.77
2023-03-07T12:12:32.353Z,10.30
2023-03-07T12:15:49.878Z,9.90
2023-03-07T12:18:53.265Z,10.05
2023-03-07T12:25:38.034Z,8.82
2023-03-07T12:29:13.334Z,15.75
2023-03-07T12:32:06.489Z,21.13
2023-03-07T12:34:58.335Z,13.20
2023-03-07T12:37:27.185Z,10.50
2023-03-07T12:39:57.723Z,9.52
2023-03-07T12:43:07.123Z,12.63
2023-03-07T12:45:45.098Z,9.82
2023-03-07T12:48:26.183Z,13.98
2023-03-07T12:51:10.645Z,8.65
2023-03-07T12:53:39.674Z,10.63
2023-03-07T12:56:23.054Z,7.07
2023-03-07T12:59:43.224Z,7.40
2023-03-07T13:05:59.691Z,14.52
2023-03-07T13:08:57.960Z,17.73
2023-03-07T13:11:28.073Z,12.90
2023-03-07T13:14:18.586Z,9.60
2023-03-07T13:17:03.470Z,8.50
2023-03-07T13:20:42.792Z,7.72
2023-03-07T13:24:29.408Z,6.93
2023-03-07T13:27:07.644Z,8.68
2023-03-07T13:30:38.531Z,19.10
2023-03-07T13:33:25.648Z,10.15
2023-03-07T13:35:59.084Z,14.50
2023-03-07T13:38:34.879Z,9.82
2023-03-07T13:41:03.279Z,8.40
2023-03-07T13:43:59.814Z,7.10
2023-03-07T13:46:49.061Z,8.43
2023-03-07T13:49:46.517Z,12.13
2023-03-07T13:52:35.370Z,8.52
2023-03-07T13:55:02.677Z,8.77
2023-03-07T13:57:41.861Z,14.70
2023-03-07T14:00:25.925Z,11.32
2023-03-07T14:02:51.345Z,9.80
2023-03-07T14:05:16.307Z,9.13
2023-03-07T14:07:43.096Z,7.20
2023-03-07T14:10:22.873Z,11.48
2023-03-07T14:13:17.332Z,8.57
2023-03-07T14:16:17.322Z,15.07
2023-03-07T14:19:06.832Z,90.30
2023-03-07T14:25:54.776Z,48.38
2023-03-07T14:29:29.535Z,15.55
2023-03-07T14:33:11.332Z,9.30
2023-03-07T14:44:13.698Z,14.07
2023-03-07T14:49:28.540Z,9.88
2023-03-07T14:52:46.435Z,10.88
2023-03-07T14:59:54.311Z,12.45
2023-03-07T15:03:01.418Z,8.63
2023-03-07T15:05:50.064Z,17.45
2023-03-07T15:12:29.991Z,10.27
2023-03-07T15:18:36.722Z,13.80
2023-03-07T15:21:12.582Z,10.05
2023-03-07T15:23:44.383Z,32.45
2023-03-07T15:26:21.261Z,23.17
2023-03-07T15:28:49.796Z,17.52
2023-03-07T15:31:15.415Z,23.92
2023-03-07T15:33:40.158Z,11.93
2023-03-07T15:36:17.863Z,14.80
2023-03-07T15:38:44.529Z,13.10
2023-03-07T15:41:29.202Z,15.20
2023-03-07T15:44:16.809Z,15.85
2023-03-07T15:46:44.456Z,32.30
2023-03-07T15:49:24.534Z,15.02
2023-03-07T15:51:53.298Z,16.65
2023-03-07T15:54:25.919Z,21.52
2023-03-07T15:56:56.611Z,15.23
2023-03-07T15:59:26.452Z,17.98
2023-03-07T16:01:51.225Z,15.55
2023-03-07T16:04:37.890Z,15.20
2023-03-07T16:07:04.234Z,14.80
2023-03-07T16:09:28.627Z,17.52
2023-03-07T16:11:53.184Z,25.20
2023-03-07T16:14:23.820Z,21.83
2023-03-07T16:16:48.723Z,17.95
2023-03-07T16:19:13.203Z,24.77
2023-03-07T16:21:37.646Z,23.83
2023-03-07T16:24:03.389Z,26.25
2023-03-07T16:26:29.115Z,25.02
2023-03-07T16:28:55.406Z,19.55
2023-03-07T16:31:20.679Z,19.42
2023-03-07T16:33:46.403Z,20.50
2023-03-07T16:36:12.521Z,18.92
2023-03-07T16:38:37.020Z,21.60
2023-03-07T16:41:04.531Z,25.38
2023-03-07T16:43:35.019Z,17.58
2023-03-07T16:45:59.814Z,33.97
2023-03-07T16:48:24.276Z,22.38
2023-03-07T16:50:48.834Z,21.27
2023-03-07T16:53:13.255Z,22.60
2023-03-07T16:55:39.572Z,20.50
2023-03-07T16:58:07.263Z,20.90
2023-03-07T17:00:33.174Z,32.72
2023-03-07T17:03:02.194Z,35.65
2023-03-07T17:05:28.089Z,37.93
2023-03-07T17:07:53.120Z,40.80
2023-03-07T17:10:18.046Z,57.63
2023-03-07T17:12:45.996Z,46.35
2023-03-07T17:15:16.460Z,42.88
2023-03-07T17:17:40.945Z,51.15
2023-03-07T17:20:08.304Z,46.50
2023-03-07T17:22:32.794Z,39.97
2023-03-07T17:24:57.254Z,32.95
2023-03-07T17:27:21.982Z,42.30
2023-03-07T17:29:50.119Z,33.97
2023-03-07T17:32:16.324Z,25.95
2023-03-07T17:34:41.113Z,34.58
2023-03-07T17:37:06.771Z,45.38
2023-03-07T17:39:32.319Z,32.65
2023-03-07T17:41:57.140Z,33.53
2023-03-07T17:44:21.500Z,36.70
2023-03-07T17:46:46.268Z,32.38
2023-03-07T17:49:12.112Z,31.33
2023-03-07T17:51:36.626Z,37.58
2023-03-07T17:54:01.255Z,36.63
2023-03-07T17:56:25.946Z,42.38
2023-03-07T17:58:50.554Z,25.38
2023-03-07T18:01:15.335Z,44.50
2023-03-07T18:03:40.364Z,32.80
2023-03-07T18:06:06.669Z,40.65
2023-03-07T18:08:31.020Z,35.92
2023-03-07T18:10:55.520Z,33.78
2023-03-07T18:13:21.851Z,46.10
2023-03-07T18:15:47.179Z,43.38
2023-03-07T18:18:11.557Z,32.70
2023-03-07T18:20:35.971Z,37.15
2023-03-07T18:23:01.892Z,42.33
2023-03-07T18:25:26.253Z,44.83
2023-03-07T18:27:50.650Z,38.25
2023-03-07T18:30:16.000Z,42.80
2023-03-07T18:32:40.356Z,42.45
2023-03-07T18:35:05.402Z,33.92
2023-03-07T18:37:30.269Z,35.90
2023-03-07T18:39:56.078Z,34.50
2023-03-07T18:42:20.533Z,32.25
2023-03-07T18:44:45.245Z,29.83
2023-03-07T18:47:10.707Z,32.83
2023-03-07T18:49:35.641Z,30.73
2023-03-07T18:51:59.913Z,31.05
2023-03-07T18:54:24.335Z,30.08
2023-03-07T18:56:50.052Z,31.42
2023-03-07T18:59:14.829Z,35.22
2023-03-07T19:01:39.746Z,25.23
2023-03-07T19:04:05.407Z,24.88
2023-03-07T19:06:33.799Z,25.75
2023-03-07T19:08:58.295Z,30.95
2023-03-07T19:11:22.697Z,26.60
2023-03-07T19:13:51.393Z,30.40
2023-03-07T19:16:17.935Z,32.88
2023-03-07T19:18:43.295Z,30.70
2023-03-07T19:21:08.337Z,31.48
2023-03-07T19:23:32.625Z,33.92
2023-03-07T19:25:57.080Z,37.97
2023-03-07T19:28:21.452Z,36.13
2023-03-07T19:30:47.317Z,42.15
2023-03-07T19:33:12.212Z,35.55
2023-03-07T19:35:36.578Z,37.47
2023-03-07T19:38:02.410Z,42.00
2023-03-07T19:40:28.463Z,37.40
2023-03-07T19:42:52.834Z,37.42
2023-03-07T19:45:17.276Z,38.80
2023-03-07T19:47:42.998Z,35.53
2023-03-07T19:50:08.269Z,33.80
2023-03-07T19:52:32.622Z,35.30
2023-03-07T19:54:57.012Z,42.42
2023-03-07T19:57:21.540Z,42.72
2023-03-07T19:59:53.701Z,40.40
2023-03-07T20:02:18.143Z,38.70
2023-03-07T20:04:44.211Z,43.22
2023-03-07T20:07:09.437Z,41.47
2023-03-07T20:09:33.839Z,40.33
2023-03-07T20:11:58.275Z,46.83
2023-03-07T20:14:22.910Z,37.03
2023-03-07T20:16:47.345Z,48.75
2023-03-07T20:19:14.732Z,44.65
2023-03-07T20:21:44.216Z,45.03
2023-03-07T20:24:09.487Z,46.63
2023-03-07T20:26:36.295Z,48.30
2023-03-07T20:29:01.432Z,46.33
2023-03-07T20:31:26.230Z,45.30
2023-03-07T20:33:51.741Z,47.72
2023-03-07T20:36:18.445Z,42.97
2023-03-07T20:38:44.470Z,44.25
2023-03-07T20:41:11.478Z,41.90
2023-03-07T20:43:35.888Z,42.08
2023-03-07T20:46:04.289Z,43.95
2023-03-07T20:48:28.681Z,43.92
2023-03-07T20:50:53.024Z,45.95
2023-03-07T20:53:17.407Z,35.40
2023-03-07T20:55:43.161Z,45.95
2023-03-07T20:58:08.225Z,36.88
2023-03-07T21:00:32.614Z,39.30
2023-03-07T21:03:05.704Z,42.95
2023-03-07T21:05:31.008Z,39.10
2023-03-07T21:07:55.341Z,39.53
2023-03-07T21:10:22.461Z,44.53
2023-03-07T21:12:49.712Z,42.05
2023-03-07T21:15:14.185Z,47.80
2023-03-07T21:17:39.690Z,37.78
2023-03-07T21:20:08.023Z,38.53
2023-03-07T21:22:32.354Z,36.40
2023-03-07T21:24:56.796Z,37.78
2023-03-07T21:27:21.161Z,37.95
2023-03-07T21:29:49.179Z,43.47
2023-03-07T21:32:13.563Z,40.22
2023-03-07T21:34:38.082Z,43.38
2023-03-07T21:37:02.394Z,39.67
2023-03-07T21:39:27.202Z,36.70
2023-03-07T21:41:51.658Z,35.70
2023-03-07T21:44:16.332Z,45.35
2023-03-07T21:46:42.322Z,41.85
2023-03-07T21:49:06.978Z,38.00
2023-03-07T21:51:31.418Z,44.78
2023-03-07T21:53:55.909Z,43.38
2023-03-07T21:56:22.196Z,44.38
2023-03-07T21:58:50.186Z,38.45
2023-03-07T22:01:17.082Z,43.13
2023-03-07T22:03:43.683Z,41.33
2023-03-07T22:06:10.070Z,43.80
2023-03-07T22:08:34.601Z,39.13
2023-03-07T22:11:00.542Z,40.45
2023-03-07T22:13:25.049Z,35.22
2023-03-07T22:15:49.357Z,39.33
2023-03-07T22:18:13.850Z,35.55
2023-03-07T22:20:40.876Z,33.67
2023-03-07T22:23:05.174Z,42.45
2023-03-07T22:25:29.634Z,36.40
2023-03-07T22:27:55.232Z,37.30
2023-03-07T22:30:21.319Z,36.42
2023-03-07T22:32:45.885Z,34.72
2023-03-07T22:35:10.913Z,36.88
2023-03-07T22:37:36.666Z,48.05
2023-03-07T22:40:03.208Z,43.10
2023-03-07T22:42:27.524Z,37.80
2023-03-07T22:44:51.934Z,35.28
2023-03-07T22:47:16.213Z,37.13
2023-03-07T22:49:40.608Z,37.28
2023-03-07T22:52:05.486Z,35.33
2023-03-07T22:54:31.539Z,37.75
2023-03-07T22:56:55.884Z,36.00
2023-03-07T22:59:20.288Z,33.17
2023-03-07T23:01:48.105Z,34.70
2023-03-07T23:04:14.454Z,32.92
2023-03-07T23:06:39.036Z,42.80
2023-03-07T23:09:04.082Z,34.53
2023-03-07T23:11:31.568Z,35.10
2023-03-07T23:13:56.230Z,37.78
2023-03-07T23:16:24.245Z,36.08
2023-03-07T23:18:50.747Z,33.78
2023-03-07T23:21:17.344Z,32.92
2023-03-07T23:23:41.889Z,38.28
2023-03-07T23:26:06.819Z,36.25
2023-03-07T23:28:32.991Z,36.28
2023-03-07T23:30:58.654Z,36.90
2023-03-07T23:33:23.140Z,41.38
2023-03-07T23:35:47.658Z,42.22
2023-03-07T23:38:13.807Z,46.28
2023-03-07T23:40:38.260Z,37.95
2023-03-07T23:43:02.609Z,46.28
2023-03-07T23:45:28.510Z,39.38
2023-03-07T23:47:53.428Z,51.97
2023-03-07T23:50:18.296Z,44.38
2023-03-07T23:52:42.895Z,41.28
2023-03-07T23:55:09.282Z,39.35
2023-03-07T23:57:33.658Z,44.13
2023-03-07T23:59:58.053Z,43.70
